sensor_id;sensor_type;location;lat;lon;timestamp;temperature;humidity
12588;DHT22;6359;51.450;7.346;2022-12-19T00:01:03;1.90;99.90
12588;DHT22;6359;51.450;7.346;2022-12-19T00:03:31;2.10;99.90
12588;DHT22;6359;51.450;7.346;2022-12-19T00:06:00;1.90;99.90
12588;DHT22;6359;51.450;7.346;2022-12-19T00:08:30;1.80;99.90
12588;DHT22;6359;51.450;7.346;2022-12-19T00:10:59;1.90;99.90
12588;DHT22;6359;51.450;7.346;2022-12-19T00:13:28;2.00;99.90
12588;DHT22;6359;51.450;7.346;2022-12-19T00:16:01;1.90;99.90
12588;DHT22;6359;51.450;7.346;2022-12-19T00:18:28;1.70;99.90
12588;DHT22;6359;51.450;7.346;2022-12-19T00:20:56;1.10;99.90
12588;DHT22;6359;51.450;7.346;2022-12-19T00:25:51;2.10;99.90
12588;DHT22;6359;51.450;7.346;2022-12-19T00:28:18;2.00;99.90
12588;DHT22;6359;51.450;7.346;2022-12-19T00:33:14;2.10;99.90
12588;DHT22;6359;51.450;7.346;2022-12-19T00:35:41;2.20;99.90
12588;DHT22;6359;51.450;7.346;2022-12-19T00:38:08;2.10;99.90
12588;DHT22;6359;51.450;7.346;2022-12-19T00:40:35;2.20;99.90
12588;DHT22;6359;51.450;7.346;2022-12-19T00:43:02;2.10;99.90
12588;DHT22;6359;51.450;7.346;2022-12-19T00:45:29;2.30;99.90
12588;DHT22;6359;51.450;7.346;2022-12-19T00:47:56;2.40;99.90
12588;DHT22;6359;51.450;7.346;2022-12-19T00:50:24;2.20;99.90
12588;DHT22;6359;51.450;7.346;2022-12-19T00:52:51;2.20;99.90
12588;DHT22;6359;51.450;7.346;2022-12-19T01:00:16;2.20;99.90
12588;DHT22;6359;51.450;7.346;2022-12-19T01:02:43;2.00;99.90
12588;DHT22;6359;51.450;7.346;2022-12-19T01:05:10;2.10;99.90
12588;DHT22;6359;51.450;7.346;2022-12-19T01:07:38;2.10;99.90
12588;DHT22;6359;51.450;7.346;2022-12-19T01:10:06;2.20;99.90
12588;DHT22;6359;51.450;7.346;2022-12-19T01:15:12;2.20;99.90
12588;DHT22;6359;51.450;7.346;2022-12-19T01:20:07;2.20;99.90
12588;DHT22;6359;51.450;7.346;2022-12-19T01:25:04;2.50;99.90
12588;DHT22;6359;51.450;7.346;2022-12-19T01:29:58;2.20;99.90
12588;DHT22;6359;51.450;7.346;2022-12-19T01:32:25;2.50;99.90
12588;DHT22;6359;51.450;7.346;2022-12-19T01:37:19;2.70;99.90
12588;DHT22;6359;51.450;7.346;2022-12-19T01:39:47;2.60;99.90
12588;DHT22;6359;51.450;7.346;2022-12-19T01:42:17;2.70;99.90
12588;DHT22;6359;51.450;7.346;2022-12-19T01:47:47;2.70;99.90
12588;DHT22;6359;51.450;7.346;2022-12-19T01:50:19;2.70;99.90
12588;DHT22;6359;51.450;7.346;2022-12-19T01:52:46;2.70;99.90
12588;DHT22;6359;51.450;7.346;2022-12-19T01:57:42;2.90;99.90
12588;DHT22;6359;51.450;7.346;2022-12-19T02:00:10;2.80;99.90
12588;DHT22;6359;51.450;7.346;2022-12-19T02:02:41;2.70;99.90
12588;DHT22;6359;51.450;7.346;2022-12-19T02:07:37;2.90;99.90
12588;DHT22;6359;51.450;7.346;2022-12-19T02:10:06;3.00;99.90
12588;DHT22;6359;51.450;7.346;2022-12-19T02:12:35;2.80;99.90
12588;DHT22;6359;51.450;7.346;2022-12-19T02:15:05;1.10;99.90
12588;DHT22;6359;51.450;7.346;2022-12-19T02:17:40;2.90;99.90
12588;DHT22;6359;51.450;7.346;2022-12-19T02:26:56;2.90;99.90
12588;DHT22;6359;51.450;7.346;2022-12-19T02:32:18;2.50;99.90
12588;DHT22;6359;51.450;7.346;2022-12-19T02:34:52;2.90;99.90
12588;DHT22;6359;51.450;7.346;2022-12-19T02:37:25;3.00;99.90
12588;DHT22;6359;51.450;7.346;2022-12-19T02:39:55;3.00;99.90
12588;DHT22;6359;51.450;7.346;2022-12-19T02:42:27;3.00;99.90
12588;DHT22;6359;51.450;7.346;2022-12-19T02:45:02;3.10;99.90
12588;DHT22;6359;51.450;7.346;2022-12-19T02:47:33;3.30;99.90
12588;DHT22;6359;51.450;7.346;2022-12-19T02:50:01;3.30;99.90
12588;DHT22;6359;51.450;7.346;2022-12-19T02:52:46;3.50;99.90
12588;DHT22;6359;51.450;7.346;2022-12-19T02:55:16;3.50;99.90
12588;DHT22;6359;51.450;7.346;2022-12-19T02:58:15;3.50;99.90
12588;DHT22;6359;51.450;7.346;2022-12-19T03:00:51;3.50;99.90
12588;DHT22;6359;51.450;7.346;2022-12-19T03:03:27;3.60;99.90
12588;DHT22;6359;51.450;7.346;2022-12-19T03:06:02;3.60;99.90
12588;DHT22;6359;51.450;7.346;2022-12-19T03:08:36;3.70;99.90
12588;DHT22;6359;51.450;7.346;2022-12-19T03:11:06;3.50;99.90
12588;DHT22;6359;51.450;7.346;2022-12-19T03:13:36;3.90;99.90
12588;DHT22;6359;51.450;7.346;2022-12-19T03:16:07;3.80;99.90
12588;DHT22;6359;51.450;7.346;2022-12-19T03:18:36;3.80;99.90
12588;DHT22;6359;51.450;7.346;2022-12-19T03:21:07;4.00;99.90
12588;DHT22;6359;51.450;7.346;2022-12-19T03:23:36;5.90;99.90
12588;DHT22;6359;51.450;7.346;2022-12-19T03:26:06;4.00;99.90
12588;DHT22;6359;51.450;7.346;2022-12-19T03:28:38;3.80;99.90
12588;DHT22;6359;51.450;7.346;2022-12-19T03:31:08;4.00;99.90
12588;DHT22;6359;51.450;7.346;2022-12-19T03:33:39;4.10;99.90
12588;DHT22;6359;51.450;7.346;2022-12-19T03:36:12;4.10;99.90
12588;DHT22;6359;51.450;7.346;2022-12-19T03:38:43;4.10;99.90
12588;DHT22;6359;51.450;7.346;2022-12-19T03:41:13;4.10;99.90
12588;DHT22;6359;51.450;7.346;2022-12-19T03:43:42;4.10;99.90
12588;DHT22;6359;51.450;7.346;2022-12-19T03:46:13;4.20;99.90
12588;DHT22;6359;51.450;7.346;2022-12-19T03:48:45;4.20;99.90
12588;DHT22;6359;51.450;7.346;2022-12-19T03:51:19;4.20;99.90
12588;DHT22;6359;51.450;7.346;2022-12-19T03:53:56;4.20;99.90
12588;DHT22;6359;51.450;7.346;2022-12-19T03:56:30;5.80;99.90
12588;DHT22;6359;51.450;7.346;2022-12-19T03:59:04;4.20;99.90
12588;DHT22;6359;51.450;7.346;2022-12-19T04:01:33;4.20;99.90
12588;DHT22;6359;51.450;7.346;2022-12-19T04:04:03;1.80;99.90
12588;DHT22;6359;51.450;7.346;2022-12-19T04:06:33;4.20;99.90
12588;DHT22;6359;51.450;7.346;2022-12-19T04:09:01;4.20;99.90
12588;DHT22;6359;51.450;7.346;2022-12-19T04:11:31;4.20;99.90
12588;DHT22;6359;51.450;7.346;2022-12-19T04:14:03;4.20;99.90
12588;DHT22;6359;51.450;7.346;2022-12-19T04:16:37;1.80;99.90
12588;DHT22;6359;51.450;7.346;2022-12-19T04:19:10;4.20;99.90
12588;DHT22;6359;51.450;7.346;2022-12-19T04:21:44;4.20;99.90
12588;DHT22;6359;51.450;7.346;2022-12-19T04:24:16;4.20;99.90
12588;DHT22;6359;51.450;7.346;2022-12-19T04:26:46;4.30;99.90
12588;DHT22;6359;51.450;7.346;2022-12-19T04:29:15;4.30;99.90
12588;DHT22;6359;51.450;7.346;2022-12-19T04:34:14;4.00;99.90
12588;DHT22;6359;51.450;7.346;2022-12-19T04:51:28;4.60;99.90
12588;DHT22;6359;51.450;7.346;2022-12-19T04:56:23;4.30;99.90
12588;DHT22;6359;51.450;7.346;2022-12-19T04:58:55;4.30;99.90
12588;DHT22;6359;51.450;7.346;2022-12-19T05:01:22;4.10;99.90
12588;DHT22;6359;51.450;7.346;2022-12-19T05:03:49;4.10;99.90
12588;DHT22;6359;51.450;7.346;2022-12-19T05:08:46;4.20;99.90
12588;DHT22;6359;51.450;7.346;2022-12-19T05:11:15;3.90;99.90
12588;DHT22;6359;51.450;7.346;2022-12-19T05:13:42;4.00;99.90
12588;DHT22;6359;51.450;7.346;2022-12-19T05:16:10;4.00;99.90
12588;DHT22;6359;51.450;7.346;2022-12-19T05:18:38;1.70;99.90
12588;DHT22;6359;51.450;7.346;2022-12-19T05:26:02;5.00;99.90
12588;DHT22;6359;51.450;7.346;2022-12-19T05:28:30;4.10;99.90
12588;DHT22;6359;51.450;7.346;2022-12-19T05:31:05;4.10;99.90
12588;DHT22;6359;51.450;7.346;2022-12-19T05:38:27;4.20;99.90
12588;DHT22;6359;51.450;7.346;2022-12-19T05:43:23;4.10;99.90
12588;DHT22;6359;51.450;7.346;2022-12-19T05:50:48;4.50;99.90
12588;DHT22;6359;51.450;7.346;2022-12-19T05:53:16;4.40;99.90
12588;DHT22;6359;51.450;7.346;2022-12-19T06:00:39;2.70;99.90
12588;DHT22;6359;51.450;7.346;2022-12-19T06:03:07;4.60;99.90
12588;DHT22;6359;51.450;7.346;2022-12-19T06:05:36;4.30;99.90
12588;DHT22;6359;51.450;7.346;2022-12-19T06:10:30;4.40;99.90
12588;DHT22;6359;51.450;7.346;2022-12-19T06:15:25;4.10;99.90
12588;DHT22;6359;51.450;7.346;2022-12-19T06:17:54;4.30;99.90
12588;DHT22;6359;51.450;7.346;2022-12-19T06:22:49;4.30;99.90
12588;DHT22;6359;51.450;7.346;2022-12-19T06:25:16;4.50;99.90
12588;DHT22;6359;51.450;7.346;2022-12-19T06:27:43;4.30;99.90
12588;DHT22;6359;51.450;7.346;2022-12-19T06:30:11;5.10;99.90
12588;DHT22;6359;51.450;7.346;2022-12-19T06:32:37;4.50;99.90
12588;DHT22;6359;51.450;7.346;2022-12-19T06:35:07;4.50;99.90
12588;DHT22;6359;51.450;7.346;2022-12-19T06:37:34;4.60;99.90
12588;DHT22;6359;51.450;7.346;2022-12-19T06:40:01;4.90;99.90
12588;DHT22;6359;51.450;7.346;2022-12-19T06:47:23;4.60;99.90
12588;DHT22;6359;51.450;7.346;2022-12-19T06:52:19;4.50;99.90
12588;DHT22;6359;51.450;7.346;2022-12-19T07:02:20;4.90;99.90
12588;DHT22;6359;51.450;7.346;2022-12-19T07:04:51;5.00;99.90
12588;DHT22;6359;51.450;7.346;2022-12-19T07:07:22;2.40;99.90
12588;DHT22;6359;51.450;7.346;2022-12-19T07:19:39;5.20;99.90
12588;DHT22;6359;51.450;7.346;2022-12-19T07:24:35;5.60;99.90
12588;DHT22;6359;51.450;7.346;2022-12-19T07:41:52;6.30;99.90
12588;DHT22;6359;51.450;7.346;2022-12-19T07:56:55;5.90;99.90
12588;DHT22;6359;51.450;7.346;2022-12-19T08:14:10;8.50;99.90
12588;DHT22;6359;51.450;7.346;2022-12-19T08:28:57;6.20;99.90
12588;DHT22;6359;51.450;7.346;2022-12-19T08:31:26;6.10;99.90
12588;DHT22;6359;51.450;7.346;2022-12-19T08:33:54;6.20;99.90
12588;DHT22;6359;51.450;7.346;2022-12-19T08:36:22;6.10;99.90
12588;DHT22;6359;51.450;7.346;2022-12-19T08:38:50;6.20;99.90
12588;DHT22;6359;51.450;7.346;2022-12-19T08:41:17;6.20;99.90
12588;DHT22;6359;51.450;7.346;2022-12-19T08:43:48;6.30;99.90
12588;DHT22;6359;51.450;7.346;2022-12-19T08:48:45;4.10;99.90
12588;DHT22;6359;51.450;7.346;2022-12-19T08:51:13;6.40;99.90
12588;DHT22;6359;51.450;7.346;2022-12-19T08:53:42;6.40;99.90
12588;DHT22;6359;51.450;7.346;2022-12-19T08:56:12;6.40;99.90
12588;DHT22;6359;51.450;7.346;2022-12-19T08:58:39;6.40;99.90
12588;DHT22;6359;51.450;7.346;2022-12-19T09:01:09;6.50;99.90
12588;DHT22;6359;51.450;7.346;2022-12-19T09:06:09;6.50;99.90
12588;DHT22;6359;51.450;7.346;2022-12-19T09:08:37;6.60;99.90
12588;DHT22;6359;51.450;7.346;2022-12-19T09:11:06;6.60;99.90
12588;DHT22;6359;51.450;7.346;2022-12-19T09:13:34;6.60;99.90
12588;DHT22;6359;51.450;7.346;2022-12-19T09:16:03;6.70;99.90
12588;DHT22;6359;51.450;7.346;2022-12-19T09:21:00;6.80;99.90
12588;DHT22;6359;51.450;7.346;2022-12-19T09:23:29;6.70;99.90
12588;DHT22;6359;51.450;7.346;2022-12-19T09:26:05;6.50;99.90
12588;DHT22;6359;51.450;7.346;2022-12-19T09:28:35;6.70;99.90
12588;DHT22;6359;51.450;7.346;2022-12-19T09:31:05;6.80;99.90
12588;DHT22;6359;51.450;7.346;2022-12-19T09:33:34;6.80;99.90
12588;DHT22;6359;51.450;7.346;2022-12-19T09:38:31;6.90;99.90
12588;DHT22;6359;51.450;7.346;2022-12-19T09:41:08;6.90;99.90
12588;DHT22;6359;51.450;7.346;2022-12-19T09:43:49;7.00;99.90
12588;DHT22;6359;51.450;7.346;2022-12-19T09:46:26;7.00;99.90
12588;DHT22;6359;51.450;7.346;2022-12-19T09:49:00;7.10;99.90
12588;DHT22;6359;51.450;7.346;2022-12-19T09:51:31;7.30;99.90
12588;DHT22;6359;51.450;7.346;2022-12-19T09:54:06;7.30;99.90
12588;DHT22;6359;51.450;7.346;2022-12-19T09:56:39;7.40;99.90
12588;DHT22;6359;51.450;7.346;2022-12-19T09:59:18;7.40;99.90
12588;DHT22;6359;51.450;7.346;2022-12-19T10:01:51;7.40;99.90
12588;DHT22;6359;51.450;7.346;2022-12-19T10:04:20;7.40;99.90
12588;DHT22;6359;51.450;7.346;2022-12-19T10:06:50;6.50;99.90
12588;DHT22;6359;51.450;7.346;2022-12-19T10:09:19;7.40;99.90
12588;DHT22;6359;51.450;7.346;2022-12-19T10:11:59;7.30;99.90
12588;DHT22;6359;51.450;7.346;2022-12-19T10:14:38;7.60;99.90
12588;DHT22;6359;51.450;7.346;2022-12-19T10:17:14;7.50;99.90
12588;DHT22;6359;51.450;7.346;2022-12-19T10:19:51;7.70;99.90
12588;DHT22;6359;51.450;7.346;2022-12-19T10:22:29;7.90;99.90
12588;DHT22;6359;51.450;7.346;2022-12-19T10:25:09;7.70;99.90
12588;DHT22;6359;51.450;7.346;2022-12-19T10:27:42;7.60;99.90
12588;DHT22;6359;51.450;7.346;2022-12-19T10:30:13;7.50;99.90
12588;DHT22;6359;51.450;7.346;2022-12-19T10:32:49;7.80;99.90
12588;DHT22;6359;51.450;7.346;2022-12-19T10:35:25;7.80;99.90
12588;DHT22;6359;51.450;7.346;2022-12-19T10:38:07;7.80;99.90
12588;DHT22;6359;51.450;7.346;2022-12-19T10:40:44;7.70;99.90
12588;DHT22;6359;51.450;7.346;2022-12-19T10:43:17;7.80;99.90
12588;DHT22;6359;51.450;7.346;2022-12-19T10:45:49;7.80;99.90
12588;DHT22;6359;51.450;7.346;2022-12-19T10:48:19;7.80;99.90
12588;DHT22;6359;51.450;7.346;2022-12-19T10:53:15;6.70;99.90
12588;DHT22;6359;51.450;7.346;2022-12-19T10:55:45;7.70;99.90
12588;DHT22;6359;51.450;7.346;2022-12-19T10:58:21;7.70;99.90
12588;DHT22;6359;51.450;7.346;2022-12-19T11:01:10;7.90;99.90
12588;DHT22;6359;51.450;7.346;2022-12-19T11:03:39;7.70;99.90
12588;DHT22;6359;51.450;7.346;2022-12-19T11:06:39;7.70;99.90
12588;DHT22;6359;51.450;7.346;2022-12-19T11:09:19;7.70;99.90
12588;DHT22;6359;51.450;7.346;2022-12-19T11:11:55;7.80;99.90
12588;DHT22;6359;51.450;7.346;2022-12-19T11:14:25;7.50;99.90
12588;DHT22;6359;51.450;7.346;2022-12-19T11:19:25;7.80;99.90
12588;DHT22;6359;51.450;7.346;2022-12-19T11:24:23;7.80;99.90
12588;DHT22;6359;51.450;7.346;2022-12-19T11:26:52;7.90;99.90
12588;DHT22;6359;51.450;7.346;2022-12-19T11:29:22;7.90;99.90
12588;DHT22;6359;51.450;7.346;2022-12-19T11:31:55;7.90;99.90
12588;DHT22;6359;51.450;7.346;2022-12-19T11:34:24;7.90;99.90
12588;DHT22;6359;51.450;7.346;2022-12-19T11:36:55;7.90;99.90
12588;DHT22;6359;51.450;7.346;2022-12-19T11:39:32;7.80;99.90
12588;DHT22;6359;51.450;7.346;2022-12-19T11:42:09;7.90;99.90
12588;DHT22;6359;51.450;7.346;2022-12-19T11:44:45;8.40;99.90
12588;DHT22;6359;51.450;7.346;2022-12-19T11:47:23;7.90;99.90
12588;DHT22;6359;51.450;7.346;2022-12-19T11:49:58;9.00;99.90
12588;DHT22;6359;51.450;7.346;2022-12-19T11:52:37;8.10;99.90
12588;DHT22;6359;51.450;7.346;2022-12-19T11:55:15;8.10;99.90
12588;DHT22;6359;51.450;7.346;2022-12-19T11:57:44;8.20;99.90
12588;DHT22;6359;51.450;7.346;2022-12-19T12:00:19;8.20;99.90
12588;DHT22;6359;51.450;7.346;2022-12-19T12:03:21;8.30;99.90
12588;DHT22;6359;51.450;7.346;2022-12-19T12:05:59;8.30;99.90
12588;DHT22;6359;51.450;7.346;2022-12-19T12:08:53;8.40;99.90
12588;DHT22;6359;51.450;7.346;2022-12-19T12:11:41;8.40;99.90
12588;DHT22;6359;51.450;7.346;2022-12-19T12:14:23;8.50;99.90
12588;DHT22;6359;51.450;7.346;2022-12-19T12:17:33;8.50;99.90
12588;DHT22;6359;51.450;7.346;2022-12-19T12:20:20;8.50;99.90
12588;DHT22;6359;51.450;7.346;2022-12-19T12:23:14;8.50;99.90
12588;DHT22;6359;51.450;7.346;2022-12-19T12:29:06;8.60;99.90
12588;DHT22;6359;51.450;7.346;2022-12-19T12:32:04;8.60;99.90
12588;DHT22;6359;51.450;7.346;2022-12-19T12:34:54;8.60;99.90
12588;DHT22;6359;51.450;7.346;2022-12-19T12:37:57;8.60;99.90
12588;DHT22;6359;51.450;7.346;2022-12-19T12:40:59;8.50;99.90
12588;DHT22;6359;51.450;7.346;2022-12-19T12:44:02;8.40;99.90
12588;DHT22;6359;51.450;7.346;2022-12-19T12:46:44;8.50;99.90
12588;DHT22;6359;51.450;7.346;2022-12-19T12:49:40;8.60;99.90
12588;DHT22;6359;51.450;7.346;2022-12-19T12:52:18;8.60;99.90
12588;DHT22;6359;51.450;7.346;2022-12-19T12:54:48;8.70;99.90
12588;DHT22;6359;51.450;7.346;2022-12-19T12:57:18;8.70;99.90
12588;DHT22;6359;51.450;7.346;2022-12-19T12:59:46;8.70;99.90
12588;DHT22;6359;51.450;7.346;2022-12-19T13:02:16;8.70;99.90
12588;DHT22;6359;51.450;7.346;2022-12-19T13:04:59;8.50;99.90
12588;DHT22;6359;51.450;7.346;2022-12-19T13:07:29;8.80;99.90
12588;DHT22;6359;51.450;7.346;2022-12-19T13:10:16;8.80;99.90
12588;DHT22;6359;51.450;7.346;2022-12-19T13:12:59;8.90;99.90
12588;DHT22;6359;51.450;7.346;2022-12-19T13:15:33;8.90;99.90
12588;DHT22;6359;51.450;7.346;2022-12-19T13:18:29;8.90;99.90
12588;DHT22;6359;51.450;7.346;2022-12-19T13:21:00;9.10;99.90
12588;DHT22;6359;51.450;7.346;2022-12-19T13:24:11;9.10;99.90
12588;DHT22;6359;51.450;7.346;2022-12-19T13:26:49;9.00;99.90
12588;DHT22;6359;51.450;7.346;2022-12-19T13:34:58;9.20;99.90
12588;DHT22;6359;51.450;7.346;2022-12-19T13:37:31;9.20;99.90
12588;DHT22;6359;51.450;7.346;2022-12-19T13:40:14;9.20;99.90
12588;DHT22;6359;51.450;7.346;2022-12-19T13:42:53;9.40;99.90
12588;DHT22;6359;51.450;7.346;2022-12-19T13:45:37;9.20;99.90
12588;DHT22;6359;51.450;7.346;2022-12-19T13:48:14;9.10;99.90
12588;DHT22;6359;51.450;7.346;2022-12-19T13:50:42;9.20;99.90
12588;DHT22;6359;51.450;7.346;2022-12-19T13:53:15;9.10;99.90
12588;DHT22;6359;51.450;7.346;2022-12-19T13:58:21;9.00;99.90
12588;DHT22;6359;51.450;7.346;2022-12-19T14:00:50;8.90;99.90
12588;DHT22;6359;51.450;7.346;2022-12-19T14:03:30;8.80;99.90
12588;DHT22;6359;51.450;7.346;2022-12-19T14:05:59;8.80;99.90
12588;DHT22;6359;51.450;7.346;2022-12-19T14:08:30;8.80;99.90
12588;DHT22;6359;51.450;7.346;2022-12-19T14:10:58;8.70;99.90
12588;DHT22;6359;51.450;7.346;2022-12-19T14:16:13;8.70;99.90
12588;DHT22;6359;51.450;7.346;2022-12-19T14:18:46;8.70;99.90
12588;DHT22;6359;51.450;7.346;2022-12-19T14:21:15;8.70;99.90
12588;DHT22;6359;51.450;7.346;2022-12-19T14:23:44;8.60;99.90
12588;DHT22;6359;51.450;7.346;2022-12-19T14:26:16;8.60;99.90
12588;DHT22;6359;51.450;7.346;2022-12-19T14:28:48;8.60;99.90
12588;DHT22;6359;51.450;7.346;2022-12-19T14:31:17;8.60;99.90
12588;DHT22;6359;51.450;7.346;2022-12-19T14:33:46;8.50;99.90
12588;DHT22;6359;51.450;7.346;2022-12-19T14:36:20;8.40;99.90
12588;DHT22;6359;51.450;7.346;2022-12-19T14:38:49;8.30;99.90
12588;DHT22;6359;51.450;7.346;2022-12-19T14:41:20;8.30;99.90
12588;DHT22;6359;51.450;7.346;2022-12-19T14:49:22;8.20;99.90
12588;DHT22;6359;51.450;7.346;2022-12-19T14:54:20;8.20;99.90
12588;DHT22;6359;51.450;7.346;2022-12-19T14:56:49;10.50;99.90
12588;DHT22;6359;51.450;7.346;2022-12-19T14:59:31;8.20;99.90
12588;DHT22;6359;51.450;7.346;2022-12-19T15:02:13;8.10;99.90
12588;DHT22;6359;51.450;7.346;2022-12-19T15:04:43;8.20;99.90
12588;DHT22;6359;51.450;7.346;2022-12-19T15:07:15;8.20;99.90
12588;DHT22;6359;51.450;7.346;2022-12-19T15:09:55;8.20;99.90
12588;DHT22;6359;51.450;7.346;2022-12-19T15:12:27;8.20;99.90
12588;DHT22;6359;51.450;7.346;2022-12-19T15:15:18;8.20;99.90
12588;DHT22;6359;51.450;7.346;2022-12-19T15:17:47;8.20;99.90
12588;DHT22;6359;51.450;7.346;2022-12-19T15:25:13;8.30;99.90
12588;DHT22;6359;51.450;7.346;2022-12-19T15:27:42;8.30;99.90
12588;DHT22;6359;51.450;7.346;2022-12-19T15:30:14;8.20;99.90
12588;DHT22;6359;51.450;7.346;2022-12-19T15:35:11;8.20;99.90
12588;DHT22;6359;51.450;7.346;2022-12-19T15:40:08;10.20;99.90
12588;DHT22;6359;51.450;7.346;2022-12-19T15:42:41;8.30;99.90
12588;DHT22;6359;51.450;7.346;2022-12-19T15:45:12;8.10;99.90
12588;DHT22;6359;51.450;7.346;2022-12-19T15:50:16;8.20;99.90
12588;DHT22;6359;51.450;7.346;2022-12-19T15:55:12;8.30;99.90
12588;DHT22;6359;51.450;7.346;2022-12-19T15:57:43;8.30;99.90
12588;DHT22;6359;51.450;7.346;2022-12-19T16:00:16;8.30;99.90
12588;DHT22;6359;51.450;7.346;2022-12-19T16:05:15;8.40;99.90
12588;DHT22;6359;51.450;7.346;2022-12-19T16:07:43;8.40;99.90
12588;DHT22;6359;51.450;7.346;2022-12-19T16:10:10;8.50;99.90
12588;DHT22;6359;51.450;7.346;2022-12-19T16:12:39;8.50;99.90
12588;DHT22;6359;51.450;7.346;2022-12-19T16:15:13;8.50;99.90
12588;DHT22;6359;51.450;7.346;2022-12-19T16:20:15;8.60;99.90
12588;DHT22;6359;51.450;7.346;2022-12-19T16:25:11;8.70;99.90
12588;DHT22;6359;51.450;7.346;2022-12-19T16:30:17;8.70;99.90
12588;DHT22;6359;51.450;7.346;2022-12-19T16:35:13;8.80;99.90
12588;DHT22;6359;51.450;7.346;2022-12-19T16:37:41;8.70;99.90
12588;DHT22;6359;51.450;7.346;2022-12-19T16:40:13;8.90;99.90
12588;DHT22;6359;51.450;7.346;2022-12-19T16:45:16;8.90;99.90
12588;DHT22;6359;51.450;7.346;2022-12-19T16:47:44;8.90;99.90
12588;DHT22;6359;51.450;7.346;2022-12-19T16:50:16;8.90;99.90
12588;DHT22;6359;51.450;7.346;2022-12-19T17:00:06;8.90;99.90
12588;DHT22;6359;51.450;7.346;2022-12-19T17:02:43;8.90;99.90
12588;DHT22;6359;51.450;7.346;2022-12-19T17:05:20;8.90;99.90
12588;DHT22;6359;51.450;7.346;2022-12-19T17:10:15;8.80;99.90
12588;DHT22;6359;51.450;7.346;2022-12-19T17:12:43;8.80;99.90
12588;DHT22;6359;51.450;7.346;2022-12-19T17:15:20;9.10;99.90
12588;DHT22;6359;51.450;7.346;2022-12-19T17:17:49;8.80;99.90
12588;DHT22;6359;51.450;7.346;2022-12-19T17:20:19;9.10;99.90
12588;DHT22;6359;51.450;7.346;2022-12-19T17:22:47;8.70;99.90
12588;DHT22;6359;51.450;7.346;2022-12-19T17:25:17;8.90;99.90
12588;DHT22;6359;51.450;7.346;2022-12-19T17:27:45;8.80;99.90
12588;DHT22;6359;51.450;7.346;2022-12-19T17:30:12;8.80;99.90
12588;DHT22;6359;51.450;7.346;2022-12-19T17:35:13;8.80;99.90
12588;DHT22;6359;51.450;7.346;2022-12-19T17:37:43;8.90;99.90
12588;DHT22;6359;51.450;7.346;2022-12-19T17:40:16;9.10;99.90
12588;DHT22;6359;51.450;7.346;2022-12-19T17:47:39;9.40;99.90
12588;DHT22;6359;51.450;7.346;2022-12-19T17:50:17;9.20;99.90
12588;DHT22;6359;51.450;7.346;2022-12-19T17:52:44;9.10;99.90
12588;DHT22;6359;51.450;7.346;2022-12-19T17:55:13;9.10;99.90
12588;DHT22;6359;51.450;7.346;2022-12-19T18:00:09;8.90;99.90
12588;DHT22;6359;51.450;7.346;2022-12-19T18:05:04;9.30;99.90
12588;DHT22;6359;51.450;7.346;2022-12-19T18:07:33;9.10;99.90
12588;DHT22;6359;51.450;7.346;2022-12-19T18:17:23;9.00;99.90
12588;DHT22;6359;51.450;7.346;2022-12-19T18:24:47;9.10;99.90
12588;DHT22;6359;51.450;7.346;2022-12-19T18:29:41;9.10;99.90
12588;DHT22;6359;51.450;7.346;2022-12-19T18:32:14;9.20;99.90
12588;DHT22;6359;51.450;7.346;2022-12-19T18:37:12;9.20;99.90
12588;DHT22;6359;51.450;7.346;2022-12-19T18:42:17;9.20;99.90
12588;DHT22;6359;51.450;7.346;2022-12-19T18:47:19;9.20;99.90
12588;DHT22;6359;51.450;7.346;2022-12-19T18:59:38;9.00;99.90
12588;DHT22;6359;51.450;7.346;2022-12-19T19:02:14;9.20;99.90
12588;DHT22;6359;51.450;7.346;2022-12-19T19:04:44;9.00;99.90
12588;DHT22;6359;51.450;7.346;2022-12-19T19:12:06;9.20;99.90
12588;DHT22;6359;51.450;7.346;2022-12-19T19:17:02;9.10;99.90
12588;DHT22;6359;51.450;7.346;2022-12-19T19:31:47;9.20;99.90
12588;DHT22;6359;51.450;7.346;2022-12-19T19:34:19;9.20;99.90
12588;DHT22;6359;51.450;7.346;2022-12-19T19:36:49;9.20;99.90
12588;DHT22;6359;51.450;7.346;2022-12-19T19:51:36;9.30;99.90
12588;DHT22;6359;51.450;7.346;2022-12-19T19:54:03;9.40;99.90
12588;DHT22;6359;51.450;7.346;2022-12-19T20:08:48;9.40;99.90
12588;DHT22;6359;51.450;7.346;2022-12-19T20:16:12;9.50;99.90
12588;DHT22;6359;51.450;7.346;2022-12-19T20:18:40;9.50;99.90
12588;DHT22;6359;51.450;7.346;2022-12-19T20:26:04;9.50;99.90
12588;DHT22;6359;51.450;7.346;2022-12-19T20:33:29;9.60;99.90
12588;DHT22;6359;51.450;7.346;2022-12-19T20:43:21;9.40;99.90
12588;DHT22;6359;51.450;7.346;2022-12-19T21:00:33;9.20;99.90
12588;DHT22;6359;51.450;7.346;2022-12-19T21:10:22;9.50;99.90
12588;DHT22;6359;51.450;7.346;2022-12-19T21:15:16;9.40;99.90
12588;DHT22;6359;51.450;7.346;2022-12-19T21:17:44;9.40;99.90
12588;DHT22;6359;51.450;7.346;2022-12-19T21:20:12;9.40;99.90
12588;DHT22;6359;51.450;7.346;2022-12-19T21:25:07;9.40;99.90
12588;DHT22;6359;51.450;7.346;2022-12-19T21:30:02;9.80;99.90
12588;DHT22;6359;51.450;7.346;2022-12-19T21:34:58;10.10;99.90
12588;DHT22;6359;51.450;7.346;2022-12-19T21:52:11;10.20;99.90
12588;DHT22;6359;51.450;7.346;2022-12-19T22:09:24;10.50;99.90
12588;DHT22;6359;51.450;7.346;2022-12-19T22:19:16;10.10;99.90
12588;DHT22;6359;51.450;7.346;2022-12-19T22:21:44;10.20;99.90
12588;DHT22;6359;51.450;7.346;2022-12-19T22:24:13;12.30;99.90
12588;DHT22;6359;51.450;7.346;2022-12-19T22:26:42;10.10;99.90
12588;DHT22;6359;51.450;7.346;2022-12-19T22:29:14;10.20;99.90
12588;DHT22;6359;51.450;7.346;2022-12-19T22:31:42;10.20;99.90
12588;DHT22;6359;51.450;7.346;2022-12-19T22:34:11;10.20;99.90
12588;DHT22;6359;51.450;7.346;2022-12-19T22:36:40;10.20;99.90
12588;DHT22;6359;51.450;7.346;2022-12-19T22:39:10;10.20;99.90
12588;DHT22;6359;51.450;7.346;2022-12-19T22:44:07;9.20;99.90
12588;DHT22;6359;51.450;7.346;2022-12-19T22:46:36;10.10;99.90
12588;DHT22;6359;51.450;7.346;2022-12-19T22:49:05;10.10;99.90
12588;DHT22;6359;51.450;7.346;2022-12-19T22:54:02;10.10;99.90
12588;DHT22;6359;51.450;7.346;2022-12-19T22:56:31;10.20;99.90
12588;DHT22;6359;51.450;7.346;2022-12-19T22:59:00;10.20;99.90
12588;DHT22;6359;51.450;7.346;2022-12-19T23:01:31;10.30;99.90
12588;DHT22;6359;51.450;7.346;2022-12-19T23:04:00;10.20;99.90
12588;DHT22;6359;51.450;7.346;2022-12-19T23:06:29;10.20;99.90
12588;DHT22;6359;51.450;7.346;2022-12-19T23:11:28;10.20;99.90
12588;DHT22;6359;51.450;7.346;2022-12-19T23:18:52;10.40;99.90
12588;DHT22;6359;51.450;7.346;2022-12-19T23:21:20;10.40;99.90
12588;DHT22;6359;51.450;7.346;2022-12-19T23:23:49;10.50;99.90
12588;DHT22;6359;51.450;7.346;2022-12-19T23:26:18;10.50;99.90
12588;DHT22;6359;51.450;7.346;2022-12-19T23:28:50;10.60;99.90
12588;DHT22;6359;51.450;7.346;2022-12-19T23:36:14;9.60;99.90
12588;DHT22;6359;51.450;7.346;2022-12-19T23:41:10;10.60;99.90
12588;DHT22;6359;51.450;7.346;2022-12-19T23:43:39;10.60;99.90
12588;DHT22;6359;51.450;7.346;2022-12-19T23:46:08;10.60;99.90
12588;DHT22;6359;51.450;7.346;2022-12-19T23:51:04;10.70;99.90
12588;DHT22;6359;51.450;7.346;2022-12-19T23:53:34;10.70;99.90
12588;DHT22;6359;51.450;7.346;2022-12-19T23:56:03;10.70;99.90
